Terminal Aerodrome Forecast
Issued by NWS Pocatello, ID

Home | Current Version | Previous Version | Text Only | Print | Product List | Glossary On
Versions: 1 2 3 4 5 6 7 8 9 10 11 12 13
997
FTUS45 KPIH 250209 AAA
TAFIDA
TAF AMD
KIDA 250209Z 2502/2524 24025G35KT 6SM BLDU FEW110
     FM250300 22015G30KT P6SM SCT110
     FM250600 22010KT P6SM SKC
     FM251900 24007KT P6SM SCT060=

USA.gov is the U.S. government's official web portal to all federal, state and local government web resources and services.